createdAt,value
2018-01-26T00:00:15.052Z,9.94
2018-01-26T00:00:55.640Z,10.05
2018-01-26T00:01:36.221Z,10.04
2018-01-26T00:02:16.782Z,10.02
2018-01-26T00:02:57.380Z,10.04
2018-01-26T00:03:37.946Z,10.02
2018-01-26T00:04:18.560Z,10.04
2018-01-26T00:04:59.117Z,9.97
2018-01-26T00:05:39.690Z,10.04
2018-01-26T00:06:20.260Z,10.01
2018-01-26T00:07:00.826Z,10.04
2018-01-26T00:07:41.394Z,10.01
2018-01-26T00:08:21.963Z,10.05
2018-01-26T00:09:02.542Z,10.05
2018-01-26T00:09:43.170Z,10.07
2018-01-26T00:10:23.744Z,10.04
2018-01-26T00:11:04.309Z,10.04
2018-01-26T00:11:44.868Z,10.02
2018-01-26T00:12:25.435Z,10.05
2018-01-26T00:13:06.010Z,9.98
2018-01-26T00:13:46.585Z,10.07
2018-01-26T00:14:27.158Z,9.97
2018-01-26T00:15:07.735Z,9.97
2018-01-26T00:15:48.296Z,10.07
2018-01-26T00:16:28.865Z,9.95
2018-01-26T00:17:09.437Z,9.95
2018-01-26T00:17:50.052Z,10.04
2018-01-26T00:18:30.626Z,9.97
2018-01-26T00:19:11.205Z,9.98
2018-01-26T00:19:51.821Z,9.99
2018-01-26T00:20:32.366Z,9.98
2018-01-26T00:21:12.926Z,10.04
2018-01-26T00:21:53.503Z,10.02
2018-01-26T00:22:34.049Z,9.95
2018-01-26T00:23:14.665Z,10.04
2018-01-26T00:23:55.252Z,10.04
2018-01-26T00:24:35.844Z,9.95
2018-01-26T00:25:16.415Z,9.95
2018-01-26T00:25:56.979Z,10.02
2018-01-26T00:26:37.569Z,9.99
2018-01-26T00:27:18.145Z,9.99
2018-01-26T00:27:58.710Z,9.99
2018-01-26T00:28:39.265Z,9.97
2018-01-26T00:29:19.827Z,9.97
2018-01-26T00:30:00.429Z,9.95
2018-01-26T00:30:40.996Z,9.97
2018-01-26T00:31:21.566Z,9.98
2018-01-26T00:32:02.138Z,10.01
2018-01-26T00:32:42.715Z,9.98
2018-01-26T00:33:23.283Z,9.95
2018-01-26T00:34:03.880Z,9.87
2018-01-26T00:34:44.459Z,9.98
2018-01-26T00:35:25.027Z,9.95
2018-01-26T00:36:05.585Z,9.87
2018-01-26T00:36:46.176Z,9.97
2018-01-26T00:37:26.738Z,9.99
2018-01-26T00:38:07.308Z,9.97
2018-01-26T00:38:47.908Z,9.92
2018-01-26T00:39:28.474Z,9.87
2018-01-26T00:40:09.034Z,9.83
2018-01-26T00:40:49.635Z,9.94
2018-01-26T00:41:30.297Z,9.83
2018-01-26T00:42:10.889Z,9.87
2018-01-26T00:42:51.476Z,9.8
2018-01-26T00:43:32.090Z,9.82
2018-01-26T00:44:12.666Z,9.82
2018-01-26T00:44:53.253Z,9.82
2018-01-26T00:45:33.896Z,9.87
2018-01-26T00:46:14.471Z,9.87
2018-01-26T00:46:55.063Z,9.92
2018-01-26T00:47:35.617Z,9.87
2018-01-26T00:48:16.237Z,9.86
2018-01-26T00:48:56.810Z,9.91
2018-01-26T00:49:37.369Z,9.82
2018-01-26T00:50:17.981Z,9.83
2018-01-26T00:50:58.555Z,9.89
2018-01-26T00:51:39.111Z,9.86
2018-01-26T00:52:19.693Z,9.87
2018-01-26T00:53:00.264Z,9.79
2018-01-26T00:53:40.836Z,9.83
2018-01-26T00:54:21.422Z,9.83
2018-01-26T00:55:01.991Z,9.86
2018-01-26T00:55:42.560Z,9.83
2018-01-26T00:56:23.118Z,9.86
2018-01-26T00:57:03.683Z,9.83
2018-01-26T00:57:44.266Z,9.89
2018-01-26T00:58:24.833Z,9.83
2018-01-26T00:59:05.422Z,9.86
2018-01-26T00:59:45.994Z,9.84
2018-01-26T01:00:26.563Z,9.86
2018-01-26T01:01:07.123Z,9.83
2018-01-26T01:01:47.720Z,9.87
2018-01-26T01:02:28.285Z,9.83
2018-01-26T01:03:08.849Z,9.83
2018-01-26T01:03:49.448Z,9.84
2018-01-26T01:04:30.024Z,9.86
2018-01-26T01:05:10.666Z,9.8
2018-01-26T01:05:51.242Z,9.79
2018-01-26T01:06:31.798Z,9.87
2018-01-26T01:07:12.397Z,9.89
2018-01-26T01:07:52.949Z,9.95
2018-01-26T01:08:33.526Z,9.86
2018-01-26T01:09:14.120Z,9.94
2018-01-26T01:09:54.789Z,9.97
2018-01-26T01:10:35.375Z,9.97
2018-01-26T01:11:15.946Z,9.89
2018-01-26T01:11:56.522Z,9.97
2018-01-26T01:12:37.089Z,9.94
2018-01-26T01:13:17.681Z,9.99
2018-01-26T01:13:58.244Z,9.95
2018-01-26T01:14:38.840Z,9.95
2018-01-26T01:15:19.433Z,9.99
2018-01-26T01:16:00.010Z,9.98
2018-01-26T01:16:40.562Z,9.95
2018-01-26T01:17:21.127Z,9.86
2018-01-26T01:18:01.706Z,9.98
2018-01-26T01:18:42.281Z,9.97
2018-01-26T01:19:22.855Z,9.89
2018-01-26T01:20:03.456Z,9.86
2018-01-26T01:20:44.020Z,9.92
2018-01-26T01:21:24.590Z,9.87
2018-01-26T01:22:05.150Z,9.82
2018-01-26T01:22:45.712Z,9.89
2018-01-26T01:23:26.291Z,9.92
2018-01-26T01:24:06.895Z,9.95
2018-01-26T01:24:47.475Z,9.82
2018-01-26T01:25:28.041Z,9.89
2018-01-26T01:26:08.618Z,9.87
2018-01-26T01:26:49.189Z,9.86
2018-01-26T01:27:29.776Z,9.8
2018-01-26T01:28:10.337Z,9.86
2018-01-26T01:28:50.908Z,9.86
2018-01-26T01:29:31.548Z,9.8
2018-01-26T01:30:12.108Z,9.8
2018-01-26T01:30:52.674Z,9.86
2018-01-26T01:31:33.253Z,9.87
2018-01-26T01:32:13.820Z,9.86
2018-01-26T01:32:54.388Z,9.84
2018-01-26T01:33:34.982Z,9.82
2018-01-26T01:34:15.540Z,9.83
2018-01-26T01:34:56.100Z,9.89
2018-01-26T01:35:36.678Z,9.86
2018-01-26T01:36:17.253Z,9.86
2018-01-26T01:36:57.833Z,9.84
2018-01-26T01:37:38.389Z,9.83
2018-01-26T01:38:18.967Z,9.87
2018-01-26T01:38:59.551Z,9.84
2018-01-26T01:39:40.127Z,9.83
2018-01-26T01:40:20.714Z,9.87
2018-01-26T01:41:01.367Z,9.83
2018-01-26T01:41:41.956Z,9.86
2018-01-26T01:42:22.552Z,9.82
2018-01-26T01:43:03.125Z,9.86
2018-01-26T01:43:43.705Z,9.89
2018-01-26T01:44:24.270Z,9.89
2018-01-26T01:45:04.851Z,9.89
2018-01-26T01:45:45.453Z,9.84
2018-01-26T01:46:26.031Z,9.89
2018-01-26T01:47:06.604Z,9.79
2018-01-26T01:47:47.172Z,9.87
2018-01-26T01:48:27.730Z,9.86
2018-01-26T01:49:08.305Z,9.86
2018-01-26T01:49:48.904Z,9.87
2018-01-26T01:50:29.487Z,9.86
2018-01-26T01:51:10.074Z,9.84
2018-01-26T01:51:50.674Z,9.86
2018-01-26T01:52:31.236Z,9.84
2018-01-26T01:53:11.841Z,9.84
2018-01-26T01:53:52.404Z,9.79
2018-01-26T01:54:32.977Z,9.82
2018-01-26T01:55:13.557Z,9.8
2018-01-26T01:55:54.131Z,9.92
2018-01-26T01:56:34.702Z,9.79
2018-01-26T01:57:15.273Z,9.84
2018-01-26T01:57:55.839Z,9.82
2018-01-26T01:58:36.450Z,9.77
2018-01-26T01:59:17.030Z,9.77
2018-01-26T01:59:57.607Z,9.79
2018-01-26T02:00:38.218Z,9.74
2018-01-26T02:01:18.796Z,9.73
2018-01-26T02:01:59.337Z,9.76
2018-01-26T02:02:39.910Z,9.74
2018-01-26T02:03:20.472Z,9.73
2018-01-26T02:04:01.084Z,9.74
2018-01-26T02:04:41.673Z,9.8
2018-01-26T02:05:22.252Z,9.74
2018-01-26T02:06:02.831Z,9.73
2018-01-26T02:06:43.420Z,9.73
2018-01-26T02:07:23.982Z,9.72
2018-01-26T02:08:04.548Z,9.69
2018-01-26T02:08:45.106Z,9.73
2018-01-26T02:09:25.666Z,9.76
2018-01-26T02:10:06.251Z,9.73
2018-01-26T02:10:46.848Z,9.73
2018-01-26T02:11:27.410Z,9.72
2018-01-26T02:12:07.971Z,9.66
2018-01-26T02:12:48.529Z,9.77
2018-01-26T02:13:29.096Z,9.74
2018-01-26T02:14:09.666Z,9.77
2018-01-26T02:14:50.237Z,9.69
2018-01-26T02:15:30.843Z,9.74
2018-01-26T02:16:11.428Z,9.72
2018-01-26T02:16:51.998Z,9.74
2018-01-26T02:17:32.563Z,9.73
2018-01-26T02:18:13.143Z,9.73
2018-01-26T02:18:53.711Z,9.72
2018-01-26T02:19:34.283Z,9.76
2018-01-26T02:20:14.852Z,9.72
2018-01-26T02:20:55.434Z,9.72
2018-01-26T02:21:36.020Z,9.73
2018-01-26T02:22:16.566Z,9.72
2018-01-26T02:22:57.131Z,9.76
2018-01-26T02:23:37.724Z,9.66
2018-01-26T02:24:18.314Z,9.69
2018-01-26T02:24:58.879Z,9.73
2018-01-26T02:25:39.431Z,9.77
2018-01-26T02:26:20.012Z,9.79
2018-01-26T02:27:00.577Z,9.69
2018-01-26T02:27:41.157Z,9.72
2018-01-26T02:28:21.762Z,9.77
2018-01-26T02:29:02.329Z,9.73
2018-01-26T02:29:42.890Z,9.77
2018-01-26T02:30:23.468Z,9.72
2018-01-26T02:31:04.030Z,9.74
2018-01-26T02:31:44.610Z,9.72
2018-01-26T02:32:25.172Z,9.74
2018-01-26T02:33:05.748Z,9.77
2018-01-26T02:33:46.320Z,9.76
2018-01-26T02:34:26.897Z,9.77
2018-01-26T02:35:07.477Z,9.72
2018-01-26T02:35:48.017Z,9.72
2018-01-26T02:36:28.589Z,9.76
2018-01-26T02:37:09.164Z,9.73
2018-01-26T02:37:49.724Z,9.72
2018-01-26T02:38:30.303Z,9.82
2018-01-26T02:39:10.861Z,9.72
2018-01-26T02:39:51.423Z,9.72
2018-01-26T02:40:31.991Z,9.73
2018-01-26T02:41:12.559Z,9.73
2018-01-26T02:41:53.117Z,9.83
2018-01-26T02:42:33.683Z,9.73
2018-01-26T02:43:14.246Z,9.73
2018-01-26T02:43:54.792Z,9.74
2018-01-26T02:44:35.373Z,9.74
2018-01-26T02:45:15.930Z,9.74
2018-01-26T02:45:56.517Z,9.74
2018-01-26T02:46:37.074Z,9.84
2018-01-26T02:47:17.654Z,9.83
2018-01-26T02:47:58.241Z,9.86
2018-01-26T02:48:38.812Z,9.74
2018-01-26T02:49:19.373Z,9.79
2018-01-26T02:49:59.932Z,9.84
2018-01-26T02:50:40.504Z,9.83
2018-01-26T02:51:21.072Z,9.74
2018-01-26T02:52:01.644Z,9.83
2018-01-26T02:52:42.200Z,9.84
2018-01-26T02:53:22.766Z,9.82
2018-01-26T02:54:03.361Z,9.83
2018-01-26T02:54:43.918Z,9.83
2018-01-26T02:55:24.479Z,9.77
2018-01-26T02:56:05.047Z,9.77
2018-01-26T02:56:45.613Z,9.73
2018-01-26T02:57:26.181Z,9.73
2018-01-26T02:58:06.747Z,9.79
2018-01-26T02:58:47.304Z,9.82
2018-01-26T02:59:27.873Z,9.72
2018-01-26T03:00:08.427Z,9.86
2018-01-26T03:00:48.985Z,9.8
2018-01-26T03:01:29.545Z,9.8
2018-01-26T03:02:10.105Z,9.82
2018-01-26T03:02:50.671Z,9.84
2018-01-26T03:03:31.227Z,9.8
2018-01-26T03:04:11.791Z,9.73
2018-01-26T03:04:52.358Z,9.77
2018-01-26T03:05:32.910Z,9.79
2018-01-26T03:06:13.485Z,9.79
2018-01-26T03:06:54.054Z,9.77
2018-01-26T03:07:34.648Z,9.76
2018-01-26T03:08:15.228Z,9.8
2018-01-26T03:08:55.804Z,9.79
2018-01-26T03:09:36.363Z,9.72
2018-01-26T03:10:16.944Z,9.73
2018-01-26T03:10:57.505Z,9.76
2018-01-26T03:11:38.054Z,9.72
2018-01-26T03:12:18.628Z,9.73
2018-01-26T03:12:59.197Z,9.76
2018-01-26T03:13:39.757Z,9.76
2018-01-26T03:14:20.385Z,9.76
2018-01-26T03:15:00.926Z,9.74
2018-01-26T03:15:41.523Z,9.74
2018-01-26T03:16:22.088Z,9.69
2018-01-26T03:17:02.673Z,9.76
2018-01-26T03:17:43.256Z,9.73
2018-01-26T03:18:23.821Z,9.72
2018-01-26T03:19:04.391Z,9.69
2018-01-26T03:19:44.970Z,9.73
2018-01-26T03:20:25.531Z,9.76
2018-01-26T03:21:06.122Z,9.76
2018-01-26T03:21:46.770Z,9.72
2018-01-26T03:22:27.353Z,9.74
2018-01-26T03:23:07.932Z,9.74
2018-01-26T03:23:48.498Z,9.74
2018-01-26T03:24:29.066Z,9.77
2018-01-26T03:25:09.648Z,9.84
2018-01-26T03:25:50.212Z,9.86
2018-01-26T03:26:30.789Z,9.77
2018-01-26T03:27:11.347Z,9.79
2018-01-26T03:27:51.905Z,9.83
2018-01-26T03:28:32.465Z,9.82
2018-01-26T03:29:13.025Z,9.83
2018-01-26T03:29:53.616Z,9.73
2018-01-26T03:30:34.185Z,9.83
2018-01-26T03:31:14.765Z,9.83
2018-01-26T03:31:55.358Z,9.73
2018-01-26T03:32:35.945Z,9.77
2018-01-26T03:33:16.536Z,9.73
2018-01-26T03:33:57.112Z,9.76
2018-01-26T03:34:37.703Z,9.73
2018-01-26T03:35:18.274Z,9.76
2018-01-26T03:35:58.854Z,9.76
2018-01-26T03:36:39.411Z,9.74
2018-01-26T03:37:19.982Z,9.74
2018-01-26T03:38:00.550Z,9.77
2018-01-26T03:38:41.121Z,9.74
2018-01-26T03:39:21.691Z,9.69
2018-01-26T03:40:02.284Z,9.73
2018-01-26T03:40:42.881Z,9.72
2018-01-26T03:41:23.416Z,9.79
2018-01-26T03:42:03.983Z,9.74
2018-01-26T03:42:44.544Z,9.77
2018-01-26T03:43:25.099Z,9.76
2018-01-26T03:44:05.667Z,9.76
2018-01-26T03:44:46.267Z,9.73
2018-01-26T03:45:26.819Z,9.72
2018-01-26T03:46:07.383Z,9.77
2018-01-26T03:46:47.958Z,9.79
2018-01-26T03:47:28.538Z,9.76
2018-01-26T03:48:09.107Z,9.76
2018-01-26T03:48:49.685Z,9.74
2018-01-26T03:49:30.258Z,9.73
2018-01-26T03:50:10.836Z,9.76
2018-01-26T03:50:51.392Z,9.74
2018-01-26T03:51:31.993Z,9.76
2018-01-26T03:52:12.559Z,9.76
2018-01-26T03:52:53.141Z,9.76
2018-01-26T03:53:33.720Z,9.69
2018-01-26T03:54:14.286Z,9.72
2018-01-26T03:54:54.852Z,9.73
2018-01-26T03:55:35.437Z,9.72
2018-01-26T03:56:16.030Z,9.73
2018-01-26T03:56:56.608Z,9.79
2018-01-26T03:57:37.175Z,9.73
2018-01-26T03:58:17.822Z,9.73
2018-01-26T03:58:58.395Z,9.74
2018-01-26T03:59:38.961Z,9.73
2018-01-26T04:00:19.531Z,9.73
2018-01-26T04:01:00.113Z,9.83
2018-01-26T04:01:40.664Z,9.76
2018-01-26T04:02:21.244Z,9.72
2018-01-26T04:03:01.804Z,9.77
2018-01-26T04:03:42.374Z,9.77
2018-01-26T04:04:22.977Z,9.73
2018-01-26T04:05:03.541Z,9.77
2018-01-26T04:05:44.095Z,9.77
2018-01-26T04:06:24.656Z,9.73
2018-01-26T04:07:05.265Z,9.72
2018-01-26T04:07:45.834Z,9.76
2018-01-26T04:08:26.397Z,9.69
2018-01-26T04:09:06.970Z,9.74
2018-01-26T04:09:47.564Z,9.73
2018-01-26T04:10:28.127Z,9.68
2018-01-26T04:11:08.714Z,9.73
2018-01-26T04:11:49.286Z,9.62
2018-01-26T04:12:29.869Z,9.69
2018-01-26T04:13:10.436Z,9.69
2018-01-26T04:13:51.071Z,9.68
2018-01-26T04:14:31.644Z,9.65
2018-01-26T04:15:12.243Z,9.61
2018-01-26T04:15:52.810Z,9.66
2018-01-26T04:16:33.395Z,9.64
2018-01-26T04:17:13.974Z,9.62
2018-01-26T04:17:54.716Z,9.65
2018-01-26T04:18:35.321Z,9.5
2018-01-26T04:19:15.903Z,9.55
2018-01-26T04:19:56.465Z,9.5
2018-01-26T04:20:37.094Z,9.48
2018-01-26T04:21:17.695Z,9.51
2018-01-26T04:21:58.255Z,9.54
2018-01-26T04:22:38.818Z,9.51
2018-01-26T04:23:19.382Z,9.48
2018-01-26T04:23:59.934Z,9.54
2018-01-26T04:24:40.502Z,9.51
2018-01-26T04:25:21.071Z,9.54
2018-01-26T04:26:01.633Z,9.56
2018-01-26T04:26:42.259Z,9.61
2018-01-26T04:27:22.858Z,9.54
2018-01-26T04:28:03.382Z,9.51
2018-01-26T04:28:43.955Z,9.51
2018-01-26T04:29:24.521Z,9.56
2018-01-26T04:30:05.090Z,9.48
2018-01-26T04:30:45.641Z,9.54
2018-01-26T04:31:26.263Z,9.47
2018-01-26T04:32:06.834Z,9.48
2018-01-26T04:32:47.401Z,9.5
2018-01-26T04:33:27.975Z,9.5
2018-01-26T04:34:08.566Z,9.48
2018-01-26T04:34:49.133Z,9.47
2018-01-26T04:35:29.706Z,9.55
2018-01-26T04:36:10.276Z,9.55
2018-01-26T04:36:50.845Z,9.54
2018-01-26T04:37:31.404Z,9.5
2018-01-26T04:38:11.989Z,9.51
2018-01-26T04:38:52.549Z,9.54
2018-01-26T04:39:33.116Z,9.55
2018-01-26T04:40:13.679Z,9.51
2018-01-26T04:40:54.250Z,9.48
2018-01-26T04:41:34.854Z,9.48
2018-01-26T04:42:15.413Z,9.56
2018-01-26T04:42:56.003Z,9.46
2018-01-26T04:43:36.600Z,9.51
2018-01-26T04:44:17.169Z,9.47
2018-01-26T04:44:57.741Z,9.51
2018-01-26T04:45:38.322Z,9.48
2018-01-26T04:46:18.879Z,9.41
2018-01-26T04:46:59.463Z,9.48
2018-01-26T04:47:40.049Z,9.55
2018-01-26T04:48:20.605Z,9.46
2018-01-26T04:49:01.162Z,9.43
2018-01-26T04:49:41.760Z,9.4
2018-01-26T04:50:22.338Z,9.39
2018-01-26T04:51:02.930Z,9.37
2018-01-26T04:51:43.519Z,9.46
2018-01-26T04:52:24.086Z,9.44
2018-01-26T04:53:04.645Z,9.44
2018-01-26T04:53:45.209Z,9.41
2018-01-26T04:54:25.778Z,9.41
2018-01-26T04:55:06.334Z,9.37
2018-01-26T04:55:46.929Z,9.48
2018-01-26T04:56:27.521Z,9.41
2018-01-26T04:57:08.109Z,9.37
2018-01-26T04:57:48.670Z,9.37
2018-01-26T04:58:29.250Z,9.34
2018-01-26T04:59:09.808Z,9.39
2018-01-26T04:59:50.373Z,9.31
2018-01-26T05:00:30.957Z,9.36
2018-01-26T05:01:11.513Z,9.34
2018-01-26T05:01:52.098Z,9.32
2018-01-26T05:02:32.666Z,9.37
2018-01-26T05:03:13.255Z,9.28
2018-01-26T05:03:53.822Z,9.31
2018-01-26T05:04:34.383Z,9.32
2018-01-26T05:05:14.944Z,9.31
2018-01-26T05:05:55.497Z,9.29
2018-01-26T05:06:36.067Z,9.23
2018-01-26T05:07:16.648Z,9.26
2018-01-26T05:07:57.220Z,9.19
2018-01-26T05:08:37.789Z,9.18
2018-01-26T05:09:18.364Z,9.21
2018-01-26T05:09:58.926Z,9.21
2018-01-26T05:10:39.476Z,9.23
2018-01-26T05:11:20.050Z,9.1
2018-01-26T05:12:00.611Z,9.22
2018-01-26T05:12:41.197Z,9.18
2018-01-26T05:13:21.749Z,9.21
2018-01-26T05:14:02.312Z,9.23
2018-01-26T05:14:42.873Z,9.19
2018-01-26T05:15:23.443Z,9.16
2018-01-26T05:16:04.010Z,9.21
2018-01-26T05:16:44.567Z,9.18
2018-01-26T05:17:25.130Z,9.13
2018-01-26T05:18:05.692Z,9.21
2018-01-26T05:18:46.258Z,9.22
2018-01-26T05:19:26.830Z,9.19
2018-01-26T05:20:07.396Z,9.14
2018-01-26T05:20:47.949Z,9.21
2018-01-26T05:21:28.508Z,9.22
2018-01-26T05:22:09.065Z,9.22
2018-01-26T05:22:49.626Z,9.36
2018-01-26T05:23:30.204Z,9.47
2018-01-26T05:24:10.789Z,9.54
2018-01-26T05:24:51.357Z,9.76
2018-01-26T05:25:31.936Z,9.8
2018-01-26T05:26:12.504Z,9.97
2018-01-26T05:26:53.073Z,9.97
2018-01-26T05:27:33.643Z,10.09
2018-01-26T05:28:14.215Z,10.22
2018-01-26T05:28:54.793Z,10.22
2018-01-26T05:29:35.358Z,10.22
2018-01-26T05:30:15.936Z,10.26
2018-01-26T05:30:56.500Z,10.13
2018-01-26T05:31:37.056Z,10.12
2018-01-26T05:32:17.621Z,10.05
2018-01-26T05:32:58.184Z,9.95
2018-01-26T05:33:38.759Z,10.01
2018-01-26T05:34:19.335Z,9.82
2018-01-26T05:34:59.921Z,9.76
2018-01-26T05:35:40.501Z,9.79
2018-01-26T05:36:21.074Z,9.69
2018-01-26T05:37:01.632Z,9.66
2018-01-26T05:37:42.194Z,9.64
2018-01-26T05:38:22.751Z,9.54
2018-01-26T05:39:03.314Z,9.5
2018-01-26T05:39:43.908Z,9.46
2018-01-26T05:40:24.467Z,9.54
2018-01-26T05:41:05.035Z,9.4
2018-01-26T05:41:45.639Z,9.43
2018-01-26T05:42:26.238Z,9.37
2018-01-26T05:43:06.825Z,9.31
2018-01-26T05:43:47.395Z,9.31
2018-01-26T05:44:27.951Z,9.26
2018-01-26T05:45:08.513Z,9.22
2018-01-26T05:45:49.077Z,9.22
2018-01-26T05:46:29.647Z,9.25
2018-01-26T05:47:10.209Z,9.19
2018-01-26T05:47:51.482Z,9.13
2018-01-26T05:48:32.081Z,9.18
2018-01-26T05:49:12.657Z,9.16
2018-01-26T05:49:53.235Z,9.13
2018-01-26T05:50:33.815Z,9.1
2018-01-26T05:51:14.399Z,9.06
2018-01-26T05:51:54.959Z,9.13
2018-01-26T05:52:35.547Z,9
2018-01-26T05:53:16.115Z,9
2018-01-26T05:53:56.731Z,8.95
2018-01-26T05:54:37.383Z,9.08
2018-01-26T05:55:18.010Z,9.08
2018-01-26T05:55:58.584Z,8.99
2018-01-26T05:56:39.209Z,8.97
2018-01-26T05:57:19.774Z,9
2018-01-26T05:58:00.362Z,8.95
2018-01-26T05:58:40.915Z,8.91
2018-01-26T05:59:21.530Z,8.95
2018-01-26T06:00:02.125Z,8.94
2018-01-26T06:00:42.713Z,8.97
2018-01-26T06:01:23.283Z,8.89
2018-01-26T06:02:03.844Z,8.89
2018-01-26T06:02:44.405Z,8.94
2018-01-26T06:03:24.977Z,8.97
2018-01-26T06:04:05.535Z,8.99
2018-01-26T06:04:46.116Z,8.89
2018-01-26T06:05:26.689Z,8.88
2018-01-26T06:06:07.253Z,8.92
2018-01-26T06:06:47.837Z,8.91
2018-01-26T06:07:28.399Z,8.97
2018-01-26T06:08:08.991Z,8.92
2018-01-26T06:08:49.554Z,8.88
2018-01-26T06:09:30.125Z,8.89
2018-01-26T06:10:10.696Z,8.84
2018-01-26T06:10:51.268Z,8.87
2018-01-26T06:11:31.851Z,8.79
2018-01-26T06:12:12.444Z,8.79
2018-01-26T06:12:53.008Z,8.84
2018-01-26T06:13:33.568Z,8.79
2018-01-26T06:14:14.132Z,8.81
2018-01-26T06:14:54.687Z,8.78
2018-01-26T06:15:35.256Z,8.73
2018-01-26T06:16:15.835Z,8.67
2018-01-26T06:16:56.393Z,8.64
2018-01-26T06:17:37.051Z,8.73
2018-01-26T06:18:17.608Z,8.58
2018-01-26T06:18:58.201Z,8.61
2018-01-26T06:19:38.762Z,8.53
2018-01-26T06:20:19.324Z,8.52
2018-01-26T06:20:59.904Z,8.52
2018-01-26T06:21:40.498Z,8.53
2018-01-26T06:22:21.062Z,8.52
2018-01-26T06:23:01.615Z,8.55
2018-01-26T06:23:42.177Z,8.51
2018-01-26T06:24:22.731Z,8.51
2018-01-26T06:25:03.298Z,8.49
2018-01-26T06:25:43.862Z,8.51
2018-01-26T06:26:24.421Z,8.55
2018-01-26T06:28:37.233Z,8.41
2018-01-26T06:29:17.784Z,8.38
2018-01-26T06:29:58.358Z,8.38
2018-01-26T06:30:38.912Z,8.45
2018-01-26T06:31:19.476Z,8.48
2018-01-26T06:32:00.054Z,8.52
2018-01-26T06:32:42.445Z,8.44
2018-01-26T06:33:22.452Z,8.48
2018-01-26T06:34:07.555Z,8.48
2018-01-26T06:34:47.978Z,8.45
2018-01-26T06:35:28.567Z,8.45
2018-01-26T06:36:09.130Z,8.51
2018-01-26T06:36:49.710Z,8.49
2018-01-26T06:37:30.276Z,8.49
2018-01-26T06:38:10.864Z,8.46
2018-01-26T06:38:51.429Z,8.46
2018-01-26T06:39:31.999Z,8.52
2018-01-26T06:40:12.568Z,8.38
2018-01-26T06:40:53.213Z,8.44
2018-01-26T06:41:33.801Z,8.38
2018-01-26T06:42:14.341Z,8.36
2018-01-26T06:42:54.897Z,8.37
2018-01-26T06:43:35.455Z,8.38
2018-01-26T06:44:16.027Z,8.41
2018-01-26T06:44:56.598Z,8.45
2018-01-26T06:45:37.176Z,8.45
2018-01-26T06:46:17.732Z,8.41
2018-01-26T06:46:58.351Z,8.38
2018-01-26T06:47:38.948Z,8.38
2018-01-26T06:48:19.500Z,8.41
2018-01-26T06:49:00.068Z,8.46
2018-01-26T06:49:40.630Z,8.41
2018-01-26T06:50:21.191Z,8.46
2018-01-26T06:51:01.744Z,8.46
2018-01-26T06:51:42.306Z,8.52
2018-01-26T06:52:22.861Z,8.51
2018-01-26T06:53:03.421Z,8.51
2018-01-26T06:53:43.993Z,8.56
2018-01-26T06:54:24.552Z,8.49
2018-01-26T06:55:05.212Z,8.46
2018-01-26T06:55:45.777Z,8.49
2018-01-26T06:56:26.398Z,8.48
2018-01-26T06:57:07.454Z,8.44
2018-01-26T06:57:48.083Z,8.44
2018-01-26T06:58:28.657Z,8.46
2018-01-26T06:59:09.220Z,8.51
2018-01-26T06:59:49.784Z,8.49
2018-01-26T07:00:30.768Z,8.55
2018-01-26T07:01:11.326Z,8.51
2018-01-26T07:01:51.888Z,8.51
2018-01-26T07:02:32.455Z,8.49
2018-01-26T07:03:13.018Z,8.46
2018-01-26T07:03:53.586Z,8.52
2018-01-26T07:04:34.148Z,8.46
2018-01-26T07:05:14.710Z,8.48
2018-01-26T07:05:55.299Z,8.52
2018-01-26T07:06:35.861Z,8.49
2018-01-26T07:07:16.492Z,8.51
2018-01-26T07:07:57.182Z,8.45
2018-01-26T07:08:37.770Z,8.41
2018-01-26T07:09:18.358Z,8.48
2018-01-26T07:09:58.920Z,8.48
2018-01-26T07:10:39.516Z,8.44
2018-01-26T07:11:20.115Z,8.42
2018-01-26T07:12:00.699Z,8.36
2018-01-26T07:12:41.261Z,8.42
2018-01-26T07:13:21.840Z,8.37
2018-01-26T07:14:02.413Z,8.38
2018-01-26T07:14:43.038Z,8.42
2018-01-26T07:15:23.617Z,8.36
2018-01-26T07:16:04.239Z,8.33
2018-01-26T07:16:44.808Z,8.31
2018-01-26T07:17:25.385Z,8.34
2018-01-26T07:18:05.991Z,8.33
2018-01-26T07:18:49.537Z,8.31
2018-01-26T07:19:45.140Z,8.34
2018-01-26T07:20:30.040Z,8.28
2018-01-26T07:21:10.619Z,8.36
2018-01-26T07:21:51.285Z,8.31
2018-01-26T07:22:31.909Z,8.28
2018-01-26T07:23:12.476Z,8.27
2018-01-26T07:23:53.038Z,8.28
2018-01-26T07:24:33.600Z,8.33
2018-01-26T07:25:14.221Z,8.31
2018-01-26T07:25:54.798Z,8.31
2018-01-26T07:26:35.377Z,8.36
2018-01-26T07:27:15.941Z,8.34
2018-01-26T07:27:56.524Z,8.37
2018-01-26T07:28:37.105Z,8.31
2018-01-26T07:29:17.718Z,8.38
2018-01-26T07:29:58.276Z,8.41
2018-01-26T07:30:38.881Z,8.31
2018-01-26T07:31:19.440Z,8.36
2018-01-26T07:32:00.023Z,8.42
2018-01-26T07:32:40.741Z,8.37
2018-01-26T07:33:21.405Z,8.36
2018-01-26T07:34:01.976Z,8.37
2018-01-26T07:34:42.552Z,8.38
2018-01-26T07:35:23.142Z,8.38
2018-01-26T07:36:03.841Z,8.37
2018-01-26T07:36:44.457Z,8.38
2018-01-26T07:37:25.027Z,8.37
2018-01-26T07:38:05.624Z,8.41
2018-01-26T07:38:46.187Z,8.36
2018-01-26T07:39:26.748Z,8.27
2018-01-26T07:40:07.343Z,8.37
2018-01-26T07:40:47.933Z,8.36
2018-01-26T07:41:28.516Z,8.38
2018-01-26T07:42:09.092Z,8.36
2018-01-26T07:42:49.652Z,8.38
2018-01-26T07:43:30.233Z,8.34
2018-01-26T07:44:10.805Z,8.38
2018-01-26T07:44:51.387Z,8.28
2018-01-26T07:45:32.011Z,8.38
2018-01-26T07:46:12.582Z,8.33
2018-01-26T07:46:53.174Z,8.36
2018-01-26T07:47:33.740Z,8.33
2018-01-26T07:48:14.304Z,8.38
2018-01-26T07:48:55.808Z,8.37
2018-01-26T07:49:36.421Z,8.41
2018-01-26T07:50:16.959Z,8.28
2018-01-26T07:50:57.696Z,8.28
2018-01-26T07:51:38.436Z,8.42
2018-01-26T07:52:19.040Z,8.41
2018-01-26T07:52:59.627Z,8.33
2018-01-26T07:53:40.203Z,8.31
2018-01-26T07:55:17.544Z,8.38
2018-01-26T07:55:58.126Z,8.33
2018-01-26T07:56:38.685Z,8.36
2018-01-26T07:57:19.258Z,8.36
2018-01-26T07:57:59.819Z,8.38
2018-01-26T07:58:40.392Z,8.37
2018-01-26T07:59:21.406Z,8.36
2018-01-26T08:00:01.958Z,8.33
2018-01-26T08:00:42.529Z,8.33
2018-01-26T08:01:23.124Z,8.3
2018-01-26T08:02:03.756Z,8.33
2018-01-26T08:02:44.325Z,8.33
2018-01-26T08:03:25.087Z,8.41
2018-01-26T08:04:05.464Z,8.31
2018-01-26T08:04:46.080Z,8.41
2018-01-26T08:05:26.640Z,8.31
2018-01-26T08:06:07.226Z,8.3
2018-01-26T08:06:47.816Z,8.3
2018-01-26T08:07:29.038Z,8.33
2018-01-26T08:08:09.616Z,8.24
2018-01-26T08:08:50.166Z,8.24
2018-01-26T08:09:30.729Z,8.27
2018-01-26T08:10:11.294Z,8.2
2018-01-26T08:10:51.891Z,8.18
2018-01-26T08:11:32.443Z,8.26
2018-01-26T08:12:13.009Z,8.23
2018-01-26T08:12:53.566Z,8.24
2018-01-26T08:13:34.114Z,8.19
2018-01-26T08:14:14.688Z,8.2
2018-01-26T08:14:55.257Z,8.24
2018-01-26T08:15:35.844Z,8.23
2018-01-26T08:16:16.461Z,8.19
2018-01-26T08:16:57.047Z,8.27
2018-01-26T08:17:37.626Z,8.26
2018-01-26T08:18:18.224Z,8.3
2018-01-26T08:18:58.782Z,8.24
2018-01-26T08:19:39.339Z,8.36
2018-01-26T08:20:19.897Z,8.34
2018-01-26T08:21:00.514Z,8.3
2018-01-26T08:21:41.076Z,8.38
2018-01-26T08:22:21.633Z,8.28
2018-01-26T08:23:02.197Z,8.33
2018-01-26T08:23:42.757Z,8.31
2018-01-26T08:24:23.320Z,8.33
2018-01-26T08:25:03.886Z,8.28
2018-01-26T08:25:44.447Z,8.31
2018-01-26T08:26:25.644Z,8.38
2018-01-26T08:27:06.282Z,8.34
2018-01-26T08:27:46.840Z,8.28
2018-01-26T08:28:27.424Z,8.33
2018-01-26T08:29:08.063Z,8.27
2018-01-26T08:29:48.616Z,8.38
2018-01-26T08:30:29.191Z,8.37
2018-01-26T08:31:09.749Z,8.37
2018-01-26T08:31:50.338Z,8.3
2018-01-26T08:32:30.904Z,8.34
2018-01-26T08:33:11.472Z,8.31
2018-01-26T08:33:52.076Z,8.27
2018-01-26T08:34:32.661Z,8.24
2018-01-26T08:35:13.237Z,8.26
2018-01-26T08:35:53.795Z,8.2
2018-01-26T08:36:34.376Z,8.23
2018-01-26T08:37:14.947Z,8.24
2018-01-26T08:37:55.498Z,8.18
2018-01-26T08:38:36.139Z,8.16
2018-01-26T08:39:16.697Z,8.13
2018-01-26T08:39:57.277Z,8.13
2018-01-26T08:40:37.846Z,8.24
2018-01-26T08:41:18.406Z,8.19
2018-01-26T08:41:58.968Z,8.19
2018-01-26T08:42:39.530Z,8.2
2018-01-26T08:43:20.089Z,8.27
2018-01-26T08:44:00.649Z,8.24
2018-01-26T08:44:41.222Z,8.2
2018-01-26T08:45:21.810Z,8.2
2018-01-26T08:46:02.357Z,8.24
2018-01-26T08:46:43.083Z,8.24
2018-01-26T08:47:23.650Z,8.26
2018-01-26T08:48:04.209Z,8.2
2018-01-26T08:48:44.774Z,8.23
2018-01-26T08:49:25.322Z,8.19
2018-01-26T08:50:05.872Z,8.26
2018-01-26T08:50:46.474Z,8.26
2018-01-26T08:51:27.151Z,8.23
2018-01-26T08:52:07.740Z,8.2
2018-01-26T08:52:48.347Z,8.18
2018-01-26T08:53:28.907Z,8.24
2018-01-26T08:54:09.485Z,8.24
2018-01-26T08:54:50.058Z,8.23
2018-01-26T08:55:30.640Z,8.2
2018-01-26T08:56:11.210Z,8.2
2018-01-26T08:56:51.777Z,8.18
2018-01-26T08:57:32.349Z,8.2
2018-01-26T08:58:12.909Z,8.23
2018-01-26T08:58:53.471Z,8.26
2018-01-26T08:59:34.028Z,8.23
2018-01-26T09:00:14.583Z,8.28
2018-01-26T09:00:55.144Z,8.28
2018-01-26T09:01:35.695Z,8.27
2018-01-26T09:02:16.265Z,8.24
2018-01-26T09:02:56.853Z,8.28